PWSweather.com
Personal Weather Stations
Station Observations
VPOKROGLO
Kal Nad Kanalom, PrimorskaSI

Kal Nad KanalomPrimorskaSI

Lat: 46.072, Lon: 13.734

Elevation: 2526

Station Type: WS-2355

https://okroglovreme.com

Latest ConditionsUpdated 11:15:00 PM GMT+01:01 Thursday, Jul 18, 2019
Currently Today's Max Today's Min Today's Average
Temperature 62.2°F16.8°C 79.9°F26.6°C 58.1°F14.5°C 65.1°F18.4°C
Dew Point 49.5°F9.7°C 63.6°F17.6°C 49.5°F9.7°C 55.2°F12.9°C
Winds 1.2 mph NE1.9 kmh NE 9.8 mph -15.8 kmh - - 2.3 mph 3.7 kmh
Wind Gusts 3.6 mph5.8 kmh 18.6 mph29.9 kmh - -
Humidity 63% 84% 52% 71%
Pressure 30.08 in1018.6 mb 30.08 in1018.6 mb 29.99 in1015.6 mb -
Hour Temp Dew Point Humidity Winds Wind Gusts Pressure Precip Precip Rate Daily Precip Total
11:15 PM 62.2°F16.8°C 49.5°F9.7°C 63% 1.2 mph NE1.9 kmh NE 3.6 mph5.8 kmh 30.08 in1018.6 mb 0.00 in0.0 mm 0.00 in0.0 mm 0.52 in13.2 mm
11:00 PM 62.4°F16.9°C 50.5°F10.3°C 65% Calm Calm -- 30.08 in1018.6 mb 0.00 in0.0 mm 0.00 in0.0 mm 0.52 in13.2 mm
10:45 PM 62.4°F16.9°C 50.9°F10.5°C 66% 0.5 mph ENE0.8 kmh ENE 2.2 mph3.5 kmh 30.08 in1018.6 mb 0.00 in0.0 mm 0.00 in0.0 mm 0.57 in14.5 mm
10:30 PM 61.9°F16.6°C 51.2°F10.7°C 68% Calm Calm 0.9 mph1.4 kmh 30.08 in1018.6 mb 0.00 in0.0 mm 0.00 in0.0 mm 0.57 in14.5 mm
10:15 PM 61.9°F16.6°C 51.2°F10.7°C 68% 0.2 mph ENE0.3 kmh ENE 1.3 mph2.1 kmh 30.08 in1018.6 mb 0.00 in0.0 mm 0.00 in0.0 mm 0.57 in14.5 mm
10:00 PM 62.2°F16.8°C 51.1°F10.6°C 67% 1.8 mph NE2.9 kmh NE 3.6 mph5.8 kmh 30.08 in1018.6 mb 0.00 in0.0 mm 0.00 in0.0 mm 0.57 in14.5 mm
09:45 PM 61.3°F16.3°C 51.1°F10.6°C 69% 2.3 mph NE3.7 kmh NE 4.3 mph6.9 kmh 30.08 in1018.6 mb 0.02 in0.5 mm 0.00 in0.0 mm 0.57 in14.5 mm
09:30 PM 60.6°F15.9°C 50.8°F10.4°C 70% 3.4 mph NNE5.5 kmh NNE 8.1 mph13.0 kmh 30.08 in1018.6 mb 0.02 in0.5 mm 0.00 in0.0 mm 0.57 in14.5 mm
09:15 PM 61.3°F16.3°C 51.5°F10.8°C 70% 0.8 mph ENE1.3 kmh ENE 2.7 mph4.3 kmh 30.07 in1018.3 mb 0.02 in0.5 mm 0.00 in0.0 mm 0.57 in14.5 mm
09:00 PM 62.4°F16.9°C 52.1°F11.2°C 69% 0.8 mph ENE1.3 kmh ENE 2.2 mph3.5 kmh 30.07 in1018.3 mb 0.02 in0.5 mm 0.03 in0.8 mm 0.57 in14.5 mm
08:45 PM 62.2°F16.8°C 50.7°F10.4°C 66% 1.9 mph ENE3.1 kmh ENE 2.9 mph4.7 kmh 30.07 in1018.3 mb 0.00 in0.0 mm 0.00 in0.0 mm 0.55 in14.0 mm
08:30 PM 61.0°F16.1°C 49.9°F9.9°C 67% 1.5 mph ENE2.4 kmh ENE 3.8 mph6.1 kmh 30.06 in1017.9 mb 0.00 in0.0 mm 0.00 in0.0 mm 0.55 in14.0 mm
08:15 PM 61.0°F16.1°C 49.9°F9.9°C 67% 3.0 mph E4.8 kmh E 3.8 mph6.1 kmh 30.06 in1017.9 mb 0.00 in0.0 mm 0.00 in0.0 mm 0.55 in14.0 mm
08:00 PM 60.8°F16.0°C 51.3°F10.7°C 70% 1.6 mph E2.6 kmh E 4.0 mph6.4 kmh 30.05 in1017.6 mb 0.00 in0.0 mm 0.00 in0.0 mm 0.55 in14.0 mm
07:45 PM 61.3°F16.3°C 52.6°F11.4°C 73% 0.8 mph ESE1.3 kmh ESE 3.1 mph5.0 kmh 30.05 in1017.6 mb 0.00 in0.0 mm 0.00 in0.0 mm 0.55 in14.0 mm
07:30 PM 61.3°F16.3°C 53.7°F12.1°C 76% Calm Calm 1.3 mph2.1 kmh 30.04 in1017.3 mb 0.00 in0.0 mm 0.00 in0.0 mm 0.55 in14.0 mm
07:15 PM 61.0°F16.1°C 54.8°F12.7°C 80% 3.2 mph ESE5.1 kmh ESE 6.0 mph9.7 kmh 30.04 in1017.3 mb 0.00 in0.0 mm 0.00 in0.0 mm 0.55 in14.0 mm
07:00 PM 61.3°F16.3°C 55.8°F13.2°C 82% 0.2 mph NNE0.3 kmh NNE 2.0 mph3.2 kmh 30.03 in1016.9 mb 0.00 in0.0 mm 0.00 in0.0 mm 0.55 in14.0 mm
06:45 PM 61.7°F16.5°C 56.5°F13.6°C 83% 2.3 mph NNE3.7 kmh NNE 5.1 mph8.2 kmh 30.04 in1017.3 mb 0.00 in0.0 mm 0.00 in0.0 mm 0.55 in14.0 mm
06:30 PM 62.4°F16.9°C 57.2°F14.0°C 83% 1.0 mph NW1.6 kmh NW 3.8 mph6.1 kmh 30.04 in1017.3 mb 0.00 in0.0 mm 0.00 in0.0 mm 0.55 in14.0 mm
06:15 PM 61.9°F16.6°C 56.3°F13.5°C 82% 0.8 mph NW1.3 kmh NW 3.1 mph5.0 kmh 30.03 in1016.9 mb 0.00 in0.0 mm 0.00 in0.0 mm 0.55 in14.0 mm
06:00 PM 63.1°F17.3°C 56.9°F13.8°C 80% 1.2 mph NNW1.9 kmh NNW 2.9 mph4.7 kmh 30.03 in1016.9 mb 0.00 in0.0 mm 0.00 in0.0 mm 0.55 in14.0 mm
05:45 PM 64.0°F17.8°C 57.7°F14.3°C 80% 2.0 mph NW3.2 kmh NW 5.6 mph9.0 kmh 30.02 in1016.6 mb 0.00 in0.0 mm 0.00 in0.0 mm 0.55 in14.0 mm
05:30 PM 62.4°F16.9°C 56.5°F13.6°C 81% 1.5 mph SSW2.4 kmh SSW 6.5 mph10.5 kmh 30.02 in1016.6 mb 0.06 in1.5 mm 0.00 in0.0 mm 0.55 in14.0 mm
05:19 PM 61.0°F16.1°C 53.7°F12.1°C 77% 3.0 mph SW4.8 kmh SW 3.8 mph6.1 kmh 30.03 in1016.9 mb 0.16 in4.1 mm 0.00 in0.0 mm 0.55 in14.0 mm
05:14 PM 60.4°F15.8°C 53.5°F11.9°C 78% 2.8 mph WNW4.5 kmh WNW 3.8 mph6.1 kmh 30.03 in1016.9 mb 0.16 in4.1 mm 0.00 in0.0 mm 0.55 in14.0 mm
05:09 PM 59.7°F15.4°C 52.8°F11.6°C 78% 2.7 mph WNW4.3 kmh WNW 3.8 mph6.1 kmh 30.03 in1016.9 mb 0.18 in4.6 mm 0.00 in0.0 mm 0.55 in14.0 mm
05:04 PM 59.2°F15.1°C 52.7°F11.5°C 79% 1.9 mph WNW3.1 kmh WNW 2.5 mph4.0 kmh 30.03 in1016.9 mb 0.20 in5.1 mm 0.00 in0.0 mm 0.55 in14.0 mm
04:59 PM 58.8°F14.9°C 52.3°F11.3°C 79% 3.6 mph WSW5.8 kmh WSW 7.6 mph12.2 kmh 30.03 in1016.9 mb 0.20 in5.1 mm 0.00 in0.0 mm 0.55 in14.0 mm
04:54 PM 58.6°F14.8°C 52.1°F11.2°C 79% 3.7 mph SSE6.0 kmh SSE 7.6 mph12.2 kmh 30.03 in1016.9 mb 0.22 in5.6 mm 0.00 in0.0 mm 0.55 in14.0 mm
04:49 PM 58.1°F14.5°C 52.3°F11.3°C 81% 4.3 mph SSE6.9 kmh SSE 7.6 mph12.2 kmh 30.03 in1016.9 mb 0.22 in5.6 mm 0.00 in0.0 mm 0.55 in14.0 mm
04:44 PM 58.1°F14.5°C 52.0°F11.1°C 80% 2.8 mph S4.5 kmh S 3.1 mph5.0 kmh 30.04 in1017.3 mb 0.22 in5.6 mm 0.36 in9.1 mm 0.55 in14.0 mm
04:39 PM 58.6°F14.8°C 52.1°F11.2°C 79% 2.7 mph SW4.3 kmh SW 3.1 mph5.0 kmh 30.05 in1017.6 mb 0.19 in4.8 mm 1.90 in48.3 mm 0.51 in13.0 mm
03:45 PM 65.1°F18.4°C 50.9°F10.5°C 60% 3.3 mph NNE5.3 kmh NNE 10.7 mph17.2 kmh 30.02 in1016.6 mb 0.00 in0.0 mm 0.00 in0.0 mm 0.33 in8.4 mm
03:30 PM 68.2°F20.1°C 52.8°F11.6°C 58% 2.8 mph N4.5 kmh N 11.6 mph18.7 kmh 30.03 in1016.9 mb 0.00 in0.0 mm 0.00 in0.0 mm 0.33 in8.4 mm
03:15 PM 68.7°F20.4°C 52.9°F11.6°C 57% 2.2 mph NNE3.5 kmh NNE 8.5 mph13.7 kmh 30.02 in1016.6 mb 0.00 in0.0 mm 0.00 in0.0 mm 0.33 in8.4 mm
03:00 PM 72.1°F22.3°C 55.1°F12.8°C 55% 2.0 mph NW3.2 kmh NW 5.4 mph8.7 kmh 30.03 in1016.9 mb 0.00 in0.0 mm 0.00 in0.0 mm 0.33 in8.4 mm
02:45 PM 73.2°F22.9°C 56.6°F13.7°C 56% 3.3 mph NW5.3 kmh NW 11.2 mph18.0 kmh 30.02 in1016.6 mb 0.00 in0.0 mm 0.00 in0.0 mm 0.33 in8.4 mm
02:30 PM 74.5°F23.6°C 57.8°F14.3°C 56% 7.3 mph SSW11.7 kmh SSW 14.5 mph23.3 kmh 30.02 in1016.6 mb 0.00 in0.0 mm 0.00 in0.0 mm 0.33 in8.4 mm
02:15 PM 75.0°F23.9°C 58.3°F14.6°C 56% 7.8 mph SSW12.6 kmh SSW 16.1 mph25.9 kmh 30.02 in1016.6 mb 0.00 in0.0 mm 0.00 in0.0 mm 0.33 in8.4 mm
02:00 PM 74.8°F23.8°C 57.1°F13.9°C 54% 9.8 mph SSW15.8 kmh SSW 16.6 mph26.7 kmh 30.02 in1016.6 mb 0.00 in0.0 mm 0.00 in0.0 mm 0.33 in8.4 mm
01:45 PM 75.0°F23.9°C 58.3°F14.6°C 56% 5.7 mph SW9.2 kmh SW 17.0 mph27.4 kmh 30.02 in1016.6 mb 0.00 in0.0 mm 0.00 in0.0 mm 0.33 in8.4 mm
01:30 PM 74.5°F23.6°C 56.7°F13.7°C 54% 9.6 mph SSW15.4 kmh SSW 18.6 mph29.9 kmh 30.01 in1016.3 mb 0.00 in0.0 mm 0.00 in0.0 mm 0.33 in8.4 mm
01:15 PM 74.5°F23.6°C 56.2°F13.4°C 53% 6.5 mph S10.5 kmh S 13.0 mph20.9 kmh 30.01 in1016.3 mb 0.00 in0.0 mm 0.00 in0.0 mm 0.33 in8.4 mm
01:00 PM 74.5°F23.6°C 55.7°F13.2°C 52% 6.8 mph S10.9 kmh S 13.9 mph22.4 kmh 30.01 in1016.3 mb 0.00 in0.0 mm 0.00 in0.0 mm 0.33 in8.4 mm
12:45 PM 75.0°F23.9°C 56.7°F13.7°C 53% 7.6 mph S12.2 kmh S 15.4 mph24.8 kmh 30.01 in1016.3 mb 0.00 in0.0 mm 0.00 in0.0 mm 0.33 in8.4 mm
12:30 PM 74.7°F23.7°C 56.9°F13.8°C 54% 7.3 mph S11.7 kmh S 12.1 mph19.5 kmh 30.00 in1015.9 mb 0.00 in0.0 mm 0.00 in0.0 mm 0.33 in8.4 mm
12:15 PM 76.6°F24.8°C 58.2°F14.6°C 53% 6.7 mph SSW10.8 kmh SSW 13.0 mph20.9 kmh 30.01 in1016.3 mb 0.00 in0.0 mm 0.00 in0.0 mm 0.33 in8.4 mm
12:00 PM 76.3°F24.6°C 58.4°F14.7°C 54% 6.8 mph S10.9 kmh S 11.2 mph18.0 kmh 30.02 in1016.6 mb 0.00 in0.0 mm 0.00 in0.0 mm 0.33 in8.4 mm
11:45 AM 79.9°F26.6°C 63.3°F17.4°C 57% 2.1 mph NNW3.4 kmh NNW 6.5 mph10.5 kmh 30.01 in1016.3 mb 0.00 in0.0 mm 0.00 in0.0 mm 0.33 in8.4 mm
11:30 AM 79.0°F26.1°C 61.9°F16.6°C 56% 2.1 mph NNW3.4 kmh NNW 6.9 mph11.1 kmh 30.01 in1016.3 mb 0.00 in0.0 mm 0.00 in0.0 mm 0.33 in8.4 mm
11:15 AM 78.3°F25.7°C 62.3°F16.8°C 58% 2.5 mph NNW4.0 kmh NNW 6.5 mph10.5 kmh 30.01 in1016.3 mb 0.00 in0.0 mm 0.00 in0.0 mm 0.33 in8.4 mm
11:00 AM 78.6°F25.9°C 63.6°F17.6°C 60% 2.4 mph NNW3.9 kmh NNW 6.0 mph9.7 kmh 30.01 in1016.3 mb 0.00 in0.0 mm 0.00 in0.0 mm 0.33 in8.4 mm
10:45 AM 77.5°F25.3°C 63.5°F17.5°C 62% 1.4 mph NNW2.3 kmh NNW 4.0 mph6.4 kmh 30.01 in1016.3 mb 0.00 in0.0 mm 0.00 in0.0 mm 0.33 in8.4 mm
10:30 AM 77.2°F25.1°C 63.2°F17.3°C 62% 2.1 mph NNW3.4 kmh NNW 4.5 mph7.2 kmh 30.01 in1016.3 mb 0.00 in0.0 mm 0.00 in0.0 mm 0.33 in8.4 mm
10:15 AM 76.5°F24.7°C 62.5°F16.9°C 62% 1.3 mph NNW2.1 kmh NNW 3.8 mph6.1 kmh 30.01 in1016.3 mb 0.00 in0.0 mm 0.00 in0.0 mm 0.33 in8.4 mm
10:00 AM 76.1°F24.5°C 63.5°F17.5°C 65% 1.6 mph NNW2.6 kmh NNW 4.7 mph7.6 kmh 30.00 in1015.9 mb 0.00 in0.0 mm 0.00 in0.0 mm 0.33 in8.4 mm
09:45 AM 74.3°F23.5°C 63.1°F17.3°C 68% 1.4 mph NNW2.3 kmh NNW 4.3 mph6.9 kmh 30.00 in1015.9 mb 0.02 in0.5 mm 0.00 in0.0 mm 0.33 in8.4 mm
09:30 AM 73.2°F22.9°C 62.8°F17.1°C 70% 0.8 mph NNW1.3 kmh NNW 2.5 mph4.0 kmh 30.00 in1015.9 mb 0.02 in0.5 mm 0.00 in0.0 mm 0.33 in8.4 mm
09:15 AM 72.7°F22.6°C 63.1°F17.3°C 72% 1.3 mph NNW2.1 kmh NNW 4.7 mph7.6 kmh 30.00 in1015.9 mb 0.02 in0.5 mm 0.00 in0.0 mm 0.33 in8.4 mm
09:00 AM 70.0°F21.1°C 60.1°F15.6°C 71% 1.0 mph NNW1.6 kmh NNW 3.1 mph5.0 kmh 30.00 in1015.9 mb 0.02 in0.5 mm 0.03 in0.8 mm 0.33 in8.4 mm
08:45 AM 68.5°F20.3°C 59.5°F15.3°C 73% 0.1 mph NNW0.2 kmh NNW 1.8 mph2.9 kmh 30.00 in1015.9 mb 0.00 in0.0 mm 0.00 in0.0 mm 0.31 in7.9 mm
08:30 AM 70.0°F21.1°C 60.1°F15.6°C 71% 0.7 mph NNW1.1 kmh NNW 2.7 mph4.3 kmh 30.00 in1015.9 mb 0.00 in0.0 mm 0.00 in0.0 mm 0.31 in7.9 mm
08:15 AM 70.3°F21.3°C 61.3°F16.3°C 73% 0.7 mph NE1.1 kmh NE 2.5 mph4.0 kmh 30.00 in1015.9 mb 0.00 in0.0 mm 0.00 in0.0 mm 0.31 in7.9 mm
08:00 AM 66.7°F19.3°C 58.6°F14.8°C 75% 0.2 mph NE0.3 kmh NE 2.0 mph3.2 kmh 30.00 in1015.9 mb 0.00 in0.0 mm 0.00 in0.0 mm 0.31 in7.9 mm
07:45 AM 63.3°F17.4°C 55.3°F12.9°C 75% Calm Calm -- 30.00 in1015.9 mb 0.00 in0.0 mm 0.00 in0.0 mm 0.31 in7.9 mm
07:30 AM 63.0°F17.2°C 55.6°F13.1°C 77% 0.5 mph NE0.8 kmh NE 2.0 mph3.2 kmh 30.01 in1016.3 mb 0.00 in0.0 mm 0.00 in0.0 mm 0.31 in7.9 mm
07:15 AM 62.2°F16.8°C 55.6°F13.1°C 79% Calm Calm -- 30.00 in1015.9 mb 0.00 in0.0 mm 0.00 in0.0 mm 0.31 in7.9 mm
07:00 AM 61.2°F16.2°C 54.6°F12.6°C 79% Calm Calm -- 29.99 in1015.6 mb 0.00 in0.0 mm 0.00 in0.0 mm 0.31 in7.9 mm
06:45 AM 60.6°F15.9°C 54.4°F12.4°C 80% Calm Calm -- 29.99 in1015.6 mb 0.00 in0.0 mm 0.00 in0.0 mm 0.31 in7.9 mm
06:30 AM 60.6°F15.9°C 53.7°F12.1°C 78% 0.2 mph NE0.3 kmh NE 1.8 mph2.9 kmh 29.99 in1015.6 mb 0.00 in0.0 mm 0.00 in0.0 mm 0.31 in7.9 mm
06:15 AM 60.6°F15.9°C 53.7°F12.1°C 78% Calm Calm -- 29.99 in1015.6 mb 0.00 in0.0 mm 0.00 in0.0 mm 0.31 in7.9 mm
06:00 AM 60.4°F15.8°C 53.2°F11.8°C 77% Calm Calm 1.1 mph1.8 kmh 29.99 in1015.6 mb 0.00 in0.0 mm 0.00 in0.0 mm 0.31 in7.9 mm
05:45 AM 60.4°F15.8°C 53.2°F11.8°C 77% 1.2 mph NE1.9 kmh NE 2.2 mph3.5 kmh 29.99 in1015.6 mb 0.00 in0.0 mm 0.00 in0.0 mm 0.31 in7.9 mm
05:30 AM 60.1°F15.6°C 52.8°F11.6°C 77% 2.1 mph NE3.4 kmh NE 3.1 mph5.0 kmh 29.99 in1015.6 mb 0.00 in0.0 mm 0.00 in0.0 mm 0.31 in7.9 mm
05:15 AM 59.4°F15.2°C 52.5°F11.4°C 78% 3.6 mph ENE5.8 kmh ENE 4.5 mph7.2 kmh 29.99 in1015.6 mb 0.00 in0.0 mm 0.00 in0.0 mm 0.31 in7.9 mm
05:00 AM 59.4°F15.2°C 52.5°F11.4°C 78% 2.7 mph ESE4.3 kmh ESE 4.0 mph6.4 kmh 30.00 in1015.9 mb 0.00 in0.0 mm 0.00 in0.0 mm 0.31 in7.9 mm
04:45 AM 59.2°F15.1°C 52.3°F11.3°C 78% 2.5 mph ESE4.0 kmh ESE 3.8 mph6.1 kmh 30.00 in1015.9 mb 0.00 in0.0 mm 0.00 in0.0 mm 0.31 in7.9 mm
04:30 AM 59.2°F15.1°C 52.3°F11.3°C 78% 1.4 mph SE2.3 kmh SE 2.9 mph4.7 kmh 30.00 in1015.9 mb 0.00 in0.0 mm 0.00 in0.0 mm 0.31 in7.9 mm
04:15 AM 59.5°F15.3°C 52.7°F11.5°C 78% 2.4 mph SE3.9 kmh SE 3.8 mph6.1 kmh 30.00 in1015.9 mb 0.00 in0.0 mm 0.00 in0.0 mm 0.31 in7.9 mm
04:00 AM 58.8°F14.9°C 53.0°F11.7°C 81% 1.8 mph W2.9 kmh W 4.3 mph6.9 kmh 29.99 in1015.6 mb 0.00 in0.0 mm 0.00 in0.0 mm 0.31 in7.9 mm
03:45 AM 58.8°F14.9°C 53.3°F11.8°C 82% 1.4 mph W2.3 kmh W 3.4 mph5.5 kmh 30.00 in1015.9 mb 0.00 in0.0 mm 0.00 in0.0 mm 0.31 in7.9 mm
03:30 AM 59.7°F15.4°C 53.9°F12.2°C 81% 1.4 mph S2.3 kmh S 4.5 mph7.2 kmh 30.00 in1015.9 mb 0.00 in0.0 mm 0.00 in0.0 mm 0.31 in7.9 mm
03:15 AM 59.5°F15.3°C 54.0°F12.2°C 82% 1.8 mph SSE2.9 kmh SSE 4.5 mph7.2 kmh 30.00 in1015.9 mb 0.02 in0.5 mm 0.00 in0.0 mm 0.31 in7.9 mm
03:00 AM 59.7°F15.4°C 54.5°F12.5°C 83% 1.9 mph SE3.1 kmh SE 6.0 mph9.7 kmh 30.01 in1016.3 mb 0.06 in1.5 mm 0.00 in0.0 mm 0.31 in7.9 mm
02:45 AM 59.5°F15.3°C 54.7°F12.6°C 84% 1.9 mph S3.1 kmh S 4.7 mph7.6 kmh 30.00 in1015.9 mb 0.14 in3.6 mm 0.00 in0.0 mm 0.31 in7.9 mm
02:30 AM 58.8°F14.9°C 53.7°F12.1°C 83% 1.4 mph WNW2.3 kmh WNW 3.1 mph5.0 kmh 30.02 in1016.6 mb 0.19 in4.8 mm 0.00 in0.0 mm 0.31 in7.9 mm
02:15 AM 59.2°F15.1°C 53.7°F12.1°C 82% 0.8 mph WNW1.3 kmh WNW 3.1 mph5.0 kmh 30.03 in1016.9 mb 0.20 in5.1 mm 0.12 in3.0 mm 0.29 in7.4 mm
02:00 AM 59.9°F15.5°C 54.4°F12.4°C 82% 1.1 mph SE1.8 kmh SE 5.1 mph8.2 kmh 30.03 in1016.9 mb 0.17 in4.3 mm 0.09 in2.3 mm 0.24 in6.1 mm
01:45 AM 59.7°F15.4°C 53.2°F11.8°C 79% 1.8 mph S2.9 kmh S 3.8 mph6.1 kmh 30.02 in1016.6 mb 0.10 in2.5 mm 0.24 in6.1 mm 0.16 in4.1 mm
01:30 AM 61.3°F16.3°C 53.7°F12.1°C 76% 1.4 mph SSW2.3 kmh SSW 9.6 mph15.4 kmh 30.02 in1016.6 mb 0.04 in1.0 mm 0.08 in2.0 mm 0.10 in2.5 mm
01:15 AM 61.7°F16.5°C 54.1°F12.3°C 76% 2.3 mph NNW3.7 kmh NNW 5.6 mph9.0 kmh 30.01 in1016.3 mb 0.02 in0.5 mm 0.00 in0.0 mm 0.08 in2.0 mm
01:00 AM 61.5°F16.4°C 54.2°F12.3°C 77% 1.7 mph N2.7 kmh N 5.1 mph8.2 kmh 30.01 in1016.3 mb 0.02 in0.5 mm 0.03 in0.8 mm 0.08 in2.0 mm
12:45 AM 61.0°F16.1°C 54.4°F12.4°C 79% 1.9 mph ENE3.1 kmh ENE 3.6 mph5.8 kmh 30.01 in1016.3 mb 0.00 in0.0 mm 0.00 in0.0 mm 0.06 in1.5 mm
12:30 AM 61.0°F16.1°C 53.7°F12.1°C 77% 2.7 mph ENE4.3 kmh ENE 3.8 mph6.1 kmh 30.02 in1016.6 mb 0.00 in0.0 mm 0.00 in0.0 mm 0.06 in1.5 mm
12:15 AM 61.5°F16.4°C 53.9°F12.2°C 76% 2.2 mph ENE3.5 kmh ENE 3.6 mph5.8 kmh 30.01 in1016.3 mb 0.06 in1.5 mm 0.00 in0.0 mm 0.06 in1.5 mm
12:00 AM 61.7°F16.5°C 53.3°F11.8°C 74% 3.1 mph ENE5.0 kmh ENE 3.8 mph6.1 kmh 30.02 in1016.6 mb 0.06 in1.5 mm 0.00 in0.0 mm 0.06 in1.5 mm